createdAt,value
2017-11-26T00:01:41.457Z,94837.42
2017-11-26T00:04:09.810Z,94828.84
2017-11-26T00:06:38.151Z,94839.69
2017-11-26T00:09:06.524Z,94833.58
2017-11-26T00:11:34.888Z,94837.56
2017-11-26T00:14:03.282Z,94836.98
2017-11-26T00:16:31.636Z,94833.31
2017-11-26T00:18:59.976Z,94839.94
2017-11-26T00:21:28.320Z,94840.75
2017-11-26T00:23:56.667Z,94841.00
2017-11-26T00:26:25.046Z,94841.16
2017-11-26T00:28:53.392Z,94852.40
2017-11-26T00:31:21.737Z,94845.22
2017-11-26T00:33:50.093Z,94851.60
2017-11-26T00:36:18.489Z,94857.54
2017-11-26T00:38:46.891Z,94862.41
2017-11-26T00:41:15.246Z,94853.77
2017-11-26T00:43:43.644Z,94851.11
2017-11-26T00:46:11.983Z,94850.48
2017-11-26T00:48:40.360Z,94852.35
2017-11-26T00:51:08.711Z,94842.68
2017-11-26T00:53:37.087Z,94847.13
2017-11-26T00:56:05.441Z,94853.74
2017-11-26T00:58:34.037Z,94847.55
2017-11-26T01:01:02.380Z,94851.59
2017-11-26T01:03:30.725Z,94860.28
2017-11-26T01:05:59.072Z,94855.17
2017-11-26T01:08:27.432Z,94865.86
2017-11-26T01:10:55.808Z,94869.02
2017-11-26T01:13:24.147Z,94867.00
2017-11-26T01:15:52.497Z,94874.33
2017-11-26T01:18:20.877Z,94872.03
2017-11-26T01:20:49.220Z,94884.38
2017-11-26T01:23:17.567Z,94884.00
2017-11-26T01:25:45.923Z,94883.17
2017-11-26T01:28:14.272Z,94888.69
2017-11-26T01:30:42.649Z,94889.61
2017-11-26T01:33:10.991Z,94902.31
2017-11-26T01:35:39.344Z,94903.07
2017-11-26T01:38:07.687Z,94901.08
2017-11-26T01:40:36.032Z,94899.02
2017-11-26T01:43:04.505Z,94908.98
2017-11-26T01:45:32.853Z,94906.29
2017-11-26T01:48:01.208Z,94902.93
2017-11-26T01:50:29.563Z,94899.18
2017-11-26T01:52:57.915Z,94914.10
2017-11-26T01:55:26.299Z,94909.31
2017-11-26T01:57:54.648Z,94905.34
2017-11-26T02:00:23.025Z,94906.64
2017-11-26T02:02:51.375Z,94908.20
2017-11-26T02:05:19.750Z,94912.06
2017-11-26T02:07:48.102Z,94916.38
2017-11-26T02:10:16.460Z,94913.86
2017-11-26T02:12:44.813Z,94909.05
2017-11-26T02:15:13.165Z,94909.31
2017-11-26T02:17:41.554Z,94901.06
2017-11-26T02:20:09.921Z,94912.38
2017-11-26T02:22:38.265Z,94903.33
2017-11-26T02:25:06.618Z,94908.84
2017-11-26T02:27:34.964Z,94908.16
2017-11-26T02:30:03.450Z,94915.10
2017-11-26T02:32:43.472Z,94920.38
2017-11-26T02:35:23.595Z,94917.53
2017-11-26T02:37:51.941Z,94918.59
2017-11-26T02:40:20.292Z,94915.88
2017-11-26T02:42:48.639Z,94916.48
2017-11-26T02:45:17.009Z,94919.48
2017-11-26T02:47:45.370Z,94914.89
2017-11-26T02:50:13.726Z,94914.56
2017-11-26T02:52:42.068Z,94917.30
2017-11-26T02:55:10.414Z,94920.37
2017-11-26T02:57:38.798Z,94915.91
2017-11-26T03:00:07.148Z,94912.00
2017-11-26T03:02:35.500Z,94909.02
2017-11-26T03:05:03.851Z,94915.80
2017-11-26T03:07:32.195Z,94908.11
2017-11-26T03:10:00.549Z,94910.00
2017-11-26T03:12:29.251Z,94911.58
2017-11-26T03:14:57.640Z,94919.02
2017-11-26T03:17:25.984Z,94906.14
2017-11-26T03:19:54.331Z,94909.17
2017-11-26T03:22:22.680Z,94907.11
2017-11-26T03:24:51.024Z,94913.57
2017-11-26T03:27:19.408Z,94924.04
2017-11-26T03:29:47.756Z,94919.25
2017-11-26T03:32:16.107Z,94926.05
2017-11-26T03:34:44.482Z,94927.01
2017-11-26T03:37:12.826Z,94926.72
2017-11-26T03:39:41.202Z,94917.33
2017-11-26T03:42:09.536Z,94926.33
2017-11-26T03:44:37.890Z,94926.31
2017-11-26T03:47:06.255Z,94933.03
2017-11-26T03:49:34.624Z,94926.16
2017-11-26T03:52:03.000Z,94917.13
2017-11-26T03:54:31.358Z,94923.06
2017-11-26T03:56:59.708Z,94915.77
2017-11-26T03:59:28.089Z,94924.50
2017-11-26T04:01:56.435Z,94932.22
2017-11-26T04:04:24.781Z,94932.53
2017-11-26T04:06:53.167Z,94926.46
2017-11-26T04:09:21.514Z,94925.20
2017-11-26T04:11:49.879Z,94921.50
2017-11-26T04:14:18.233Z,94923.22
2017-11-26T04:16:46.585Z,94928.52
2017-11-26T04:19:14.969Z,94925.55
2017-11-26T04:21:43.323Z,94924.38
2017-11-26T04:24:11.680Z,94924.45
2017-11-26T04:26:40.024Z,94923.53
2017-11-26T04:29:08.368Z,94924.02
2017-11-26T04:31:36.789Z,94923.16
2017-11-26T04:34:05.124Z,94921.48
2017-11-26T04:36:33.463Z,94920.38
2017-11-26T04:39:01.801Z,94921.79
2017-11-26T04:41:30.156Z,94925.36
2017-11-26T04:43:58.552Z,94925.88
2017-11-26T04:46:26.932Z,94928.22
2017-11-26T04:48:55.281Z,94925.79
2017-11-26T04:51:23.622Z,94925.56
2017-11-26T04:53:51.969Z,94918.74
2017-11-26T04:56:20.327Z,94924.21
2017-11-26T05:01:22.143Z,94932.56
2017-11-26T05:03:50.490Z,94929.40
2017-11-26T05:06:18.840Z,94915.13
2017-11-26T05:08:47.191Z,94921.81
2017-11-26T05:11:15.555Z,94924.58
2017-11-26T05:13:44.029Z,94931.98
2017-11-26T05:16:12.365Z,94921.93
2017-11-26T05:18:40.708Z,94930.25
2017-11-26T05:21:09.064Z,94927.68
2017-11-26T05:23:37.407Z,94922.15
2017-11-26T05:26:05.783Z,94921.56
2017-11-26T05:28:34.128Z,94925.66
2017-11-26T05:31:02.475Z,94929.48
2017-11-26T05:33:30.844Z,94938.44
2017-11-26T05:35:59.178Z,94936.50
2017-11-26T05:38:27.556Z,94933.56
2017-11-26T05:40:55.903Z,94939.11
2017-11-26T05:43:24.248Z,94936.78
2017-11-26T05:45:52.590Z,94944.67
2017-11-26T05:48:20.927Z,94937.41
2017-11-26T05:50:49.405Z,94940.27
2017-11-26T05:53:17.751Z,94944.66
2017-11-26T05:55:46.100Z,94944.60
2017-11-26T05:58:14.447Z,94942.44
2017-11-26T06:00:42.796Z,94947.62
2017-11-26T06:03:11.163Z,94953.86
2017-11-26T06:05:39.509Z,94957.67
2017-11-26T06:08:07.851Z,94956.84
2017-11-26T06:10:36.200Z,94955.48
2017-11-26T06:13:04.540Z,94957.53
2017-11-26T06:15:32.914Z,94956.81
2017-11-26T06:18:01.260Z,94959.41
2017-11-26T06:20:29.607Z,94964.95
2017-11-26T06:22:57.987Z,94958.30
2017-11-26T06:25:26.331Z,94962.11
2017-11-26T06:27:54.685Z,94964.48
2017-11-26T06:30:23.059Z,94961.27
2017-11-26T06:32:51.396Z,94961.45
2017-11-26T06:35:19.762Z,94960.78
2017-11-26T06:37:48.103Z,94965.44
2017-11-26T06:40:16.453Z,94965.45
2017-11-26T06:42:44.836Z,94976.03
2017-11-26T06:45:13.184Z,94978.36
2017-11-26T06:47:41.524Z,94968.33
2017-11-26T06:50:09.872Z,94983.42
2017-11-26T06:52:38.264Z,94977.23
2017-11-26T06:55:06.636Z,94987.13
2017-11-26T06:57:34.980Z,94980.03
2017-11-26T07:00:03.329Z,94989.86
2017-11-26T07:02:31.662Z,94987.80
2017-11-26T07:05:00.000Z,94991.27
2017-11-26T07:07:28.381Z,94989.11
2017-11-26T07:09:56.733Z,94984.86
2017-11-26T07:12:25.198Z,94990.64
2017-11-26T07:14:53.539Z,94994.83
2017-11-26T07:17:21.884Z,94997.20
2017-11-26T07:19:50.232Z,95002.23
2017-11-26T07:22:18.585Z,95000.73
2017-11-26T07:24:46.955Z,94993.73
2017-11-26T07:27:15.302Z,95001.17
2017-11-26T07:29:43.647Z,94998.33
2017-11-26T07:32:11.996Z,95006.39
2017-11-26T07:34:40.393Z,95010.15
2017-11-26T07:37:08.754Z,95002.55
2017-11-26T07:39:37.100Z,95010.95
2017-11-26T07:42:05.438Z,95006.13
2017-11-26T07:44:33.787Z,95014.86
2017-11-26T07:47:02.161Z,95010.36
2017-11-26T07:49:30.506Z,95023.69
2017-11-26T07:51:58.873Z,95018.14
2017-11-26T07:54:27.229Z,95028.49
2017-11-26T07:56:55.595Z,95020.72
2017-11-26T07:59:23.967Z,95020.10
2017-11-26T08:01:52.305Z,95019.61
2017-11-26T08:04:20.643Z,95019.64
2017-11-26T08:06:49.016Z,95031.98
2017-11-26T08:09:17.356Z,95031.22
2017-11-26T08:11:45.704Z,95021.64
2017-11-26T08:14:14.049Z,95024.77
2017-11-26T08:16:42.391Z,95025.17
2017-11-26T08:19:10.756Z,95029.89
2017-11-26T08:21:39.133Z,95025.02
2017-11-26T08:24:07.474Z,95028.53
2017-11-26T08:26:35.857Z,95033.19
2017-11-26T08:29:04.218Z,95035.28
2017-11-26T08:31:32.587Z,95041.86
2017-11-26T08:34:00.941Z,95025.98
2017-11-26T08:36:29.284Z,95026.33
2017-11-26T08:38:57.661Z,95032.56
2017-11-26T08:41:26.017Z,95032.21
2017-11-26T08:43:54.371Z,95036.39
2017-11-26T08:46:22.721Z,95039.92
2017-11-26T08:48:51.068Z,95046.51
2017-11-26T08:51:19.501Z,95042.37
2017-11-26T08:53:47.849Z,95046.61
2017-11-26T08:56:16.189Z,95054.95
2017-11-26T08:58:44.664Z,95047.43
2017-11-26T09:01:13.011Z,95058.68
2017-11-26T09:03:41.369Z,95054.91
2017-11-26T09:06:09.750Z,95061.75
2017-11-26T09:08:38.569Z,95062.63
2017-11-26T09:11:06.955Z,95064.30
2017-11-26T09:13:35.309Z,95056.67
2017-11-26T09:16:03.651Z,95052.73
2017-11-26T09:18:31.993Z,95062.20
2017-11-26T09:21:00.343Z,95061.58
2017-11-26T09:23:28.814Z,95060.69
2017-11-26T09:25:57.153Z,95062.02
2017-11-26T09:28:25.495Z,95050.50
2017-11-26T09:30:53.850Z,95059.86
2017-11-26T09:33:22.192Z,95064.91
2017-11-26T09:35:50.578Z,95069.25
2017-11-26T09:38:18.925Z,95072.61
2017-11-26T09:40:47.265Z,95075.12
2017-11-26T09:43:15.608Z,95077.02
2017-11-26T09:45:43.948Z,95075.03
2017-11-26T09:48:12.334Z,95078.86
2017-11-26T09:50:40.680Z,95075.80
2017-11-26T09:53:09.057Z,95082.71
2017-11-26T09:55:37.412Z,95081.38
2017-11-26T09:58:05.763Z,95080.03
2017-11-26T10:00:34.131Z,95076.50
2017-11-26T10:03:02.476Z,95077.22
2017-11-26T10:05:30.821Z,95074.02
2017-11-26T10:07:59.161Z,95083.79
2017-11-26T10:10:27.501Z,95090.48
2017-11-26T10:12:55.888Z,95083.53
2017-11-26T10:15:24.228Z,95081.55
2017-11-26T10:17:52.579Z,95084.62
2017-11-26T10:20:20.951Z,95086.25
2017-11-26T10:22:49.282Z,95089.24
2017-11-26T10:25:17.616Z,95090.26
2017-11-26T10:27:45.952Z,95086.70
2017-11-26T10:30:14.296Z,95093.68
2017-11-26T10:32:42.664Z,95094.23
2017-11-26T10:35:11.005Z,95099.19
2017-11-26T10:37:39.346Z,95099.83
2017-11-26T10:40:07.721Z,95098.22
2017-11-26T10:42:36.066Z,95099.00
2017-11-26T10:45:04.532Z,95096.08
2017-11-26T10:47:32.880Z,95094.78
2017-11-26T10:50:01.224Z,95094.85
2017-11-26T10:52:29.572Z,95092.70
2017-11-26T10:54:57.920Z,95098.19
2017-11-26T10:57:26.291Z,95100.81
2017-11-26T10:59:54.635Z,95093.95
2017-11-26T11:02:22.977Z,95099.17
2017-11-26T11:04:51.311Z,95092.99
2017-11-26T11:07:19.657Z,95092.33
2017-11-26T11:09:47.998Z,95090.42
2017-11-26T11:12:16.377Z,95084.73
2017-11-26T11:14:44.723Z,95087.52
2017-11-26T11:17:13.061Z,95090.58
2017-11-26T11:19:41.399Z,95093.37
2017-11-26T11:22:09.763Z,95091.00
2017-11-26T11:24:38.137Z,95097.34
2017-11-26T11:27:06.480Z,95100.94
2017-11-26T11:29:34.812Z,95100.50
2017-11-26T11:32:03.151Z,95098.73
2017-11-26T11:34:31.518Z,95098.61
2017-11-26T11:36:59.885Z,95096.60
2017-11-26T11:39:28.226Z,95105.82
2017-11-26T11:41:56.564Z,95097.19
2017-11-26T11:44:24.948Z,95107.95
2017-11-26T11:46:53.292Z,95096.20
2017-11-26T11:49:21.632Z,95100.97
2017-11-26T11:51:49.972Z,95107.70
2017-11-26T11:54:18.315Z,95112.24
2017-11-26T11:56:46.732Z,95105.11
2017-11-26T11:59:15.075Z,95111.97
2017-11-26T12:01:43.412Z,95112.33
2017-11-26T12:04:11.803Z,95116.94
2017-11-26T12:06:40.143Z,95114.66
2017-11-26T12:09:08.534Z,95114.23
2017-11-26T12:11:36.869Z,95117.95
2017-11-26T12:14:05.201Z,95121.20
2017-11-26T12:16:33.544Z,95129.16
2017-11-26T12:19:01.888Z,95120.09
2017-11-26T12:21:30.292Z,95119.19
2017-11-26T12:23:58.656Z,95119.41
2017-11-26T12:26:26.989Z,95120.36
2017-11-26T12:28:55.356Z,95121.86
2017-11-26T12:31:23.726Z,95128.41
2017-11-26T12:33:52.092Z,95125.48
2017-11-26T12:36:20.432Z,95119.49
2017-11-26T12:38:48.785Z,95116.50
2017-11-26T12:41:17.118Z,95116.05
2017-11-26T12:43:45.467Z,95128.42
2017-11-26T12:46:13.846Z,95124.08
2017-11-26T12:48:42.176Z,95120.42
2017-11-26T12:51:10.533Z,95116.39
2017-11-26T12:53:38.886Z,95118.88
2017-11-26T12:56:07.239Z,95121.61
2017-11-26T12:58:35.599Z,95122.60
2017-11-26T13:01:03.964Z,95118.22
2017-11-26T13:03:32.302Z,95119.81
2017-11-26T13:06:00.640Z,95120.39
2017-11-26T13:08:28.975Z,95122.06
2017-11-26T13:10:57.355Z,95121.89
2017-11-26T13:13:25.714Z,95126.56
2017-11-26T13:15:54.069Z,95123.91
2017-11-26T13:18:22.404Z,95124.41
2017-11-26T13:20:50.789Z,95126.14
2017-11-26T13:23:19.173Z,95136.48
2017-11-26T13:25:47.521Z,95130.31
2017-11-26T13:28:15.859Z,95124.50
2017-11-26T13:30:44.213Z,95134.66
2017-11-26T13:33:12.556Z,95133.27
2017-11-26T13:35:40.928Z,95139.80
2017-11-26T13:38:09.294Z,95138.42
2017-11-26T13:40:37.652Z,95144.66
2017-11-26T13:43:05.995Z,95148.70
2017-11-26T13:45:34.351Z,95141.33
2017-11-26T13:48:02.755Z,95148.28
2017-11-26T13:50:31.101Z,95146.33
2017-11-26T13:52:59.482Z,95144.84
2017-11-26T13:55:27.825Z,95150.72
2017-11-26T13:57:56.193Z,95137.59
2017-11-26T14:00:24.553Z,95144.72
2017-11-26T14:02:52.925Z,95141.42
2017-11-26T14:05:21.293Z,95142.94
2017-11-26T14:07:49.652Z,95144.26
2017-11-26T14:10:18.019Z,95147.28
2017-11-26T14:12:46.380Z,95150.89
2017-11-26T14:15:14.730Z,95152.16
2017-11-26T14:17:43.092Z,95151.88
2017-11-26T14:20:11.436Z,95155.92
2017-11-26T14:22:39.786Z,95155.88
2017-11-26T14:25:08.130Z,95156.35
2017-11-26T14:27:36.729Z,95163.52
2017-11-26T14:30:05.063Z,95167.65
2017-11-26T14:32:33.408Z,95167.20
2017-11-26T14:35:01.781Z,95165.89
2017-11-26T14:37:30.126Z,95173.88
2017-11-26T14:39:58.496Z,95174.37
2017-11-26T14:42:26.841Z,95168.44
2017-11-26T14:44:55.823Z,95177.64
2017-11-26T14:47:24.204Z,95171.27
2017-11-26T14:49:52.577Z,95174.77
2017-11-26T14:52:20.917Z,95178.84
2017-11-26T14:54:49.272Z,95174.41
2017-11-26T14:57:17.620Z,95177.31
2017-11-26T14:59:45.972Z,95172.02
2017-11-26T15:02:14.317Z,95174.00
2017-11-26T15:04:42.665Z,95173.12
2017-11-26T15:07:11.006Z,95180.98
2017-11-26T15:09:39.390Z,95184.37
2017-11-26T15:12:07.735Z,95174.51
2017-11-26T15:14:36.097Z,95179.04
2017-11-26T15:17:04.451Z,95177.16
2017-11-26T15:19:32.795Z,95182.57
2017-11-26T15:22:01.189Z,95185.05
2017-11-26T15:24:29.551Z,95189.13
2017-11-26T15:26:57.902Z,95185.23
2017-11-26T15:29:26.277Z,95184.34
2017-11-26T15:31:54.615Z,95187.37
2017-11-26T15:34:22.964Z,95189.86
2017-11-26T15:36:51.351Z,95187.43
2017-11-26T15:39:19.705Z,95190.11
2017-11-26T15:41:48.052Z,95187.75
2017-11-26T15:44:16.436Z,95184.47
2017-11-26T15:46:44.800Z,95193.58
2017-11-26T15:49:13.155Z,95192.25
2017-11-26T15:51:41.540Z,95198.33
2017-11-26T15:54:09.891Z,95195.41
2017-11-26T15:56:38.251Z,95206.45
2017-11-26T15:59:06.629Z,95203.19
2017-11-26T16:01:35.353Z,95212.70
2017-11-26T16:04:03.734Z,95206.05
2017-11-26T16:06:32.059Z,95207.87
2017-11-26T16:09:00.412Z,95219.50
2017-11-26T16:11:28.789Z,95214.72
2017-11-26T16:13:57.143Z,95219.12
2017-11-26T16:16:25.493Z,95219.14
2017-11-26T16:18:53.836Z,95226.12
2017-11-26T16:21:22.184Z,95229.52
2017-11-26T16:23:50.575Z,95230.83
2017-11-26T16:26:18.920Z,95230.45
2017-11-26T16:28:47.276Z,95229.83
2017-11-26T16:31:15.640Z,95235.38
2017-11-26T16:33:44.005Z,95240.78
2017-11-26T16:36:12.395Z,95249.30
2017-11-26T16:38:40.743Z,95233.00
2017-11-26T16:41:09.155Z,95237.47
2017-11-26T16:43:37.795Z,95237.73
2017-11-26T16:46:06.263Z,95236.02
2017-11-26T16:48:34.648Z,95237.90
2017-11-26T16:51:03.010Z,95239.70
2017-11-26T16:53:31.401Z,95245.72
2017-11-26T16:55:59.765Z,95243.73
2017-11-26T16:58:28.124Z,95245.23
2017-11-26T17:00:56.509Z,95235.81
2017-11-26T17:03:24.871Z,95239.80
2017-11-26T17:05:54.167Z,95248.20
2017-11-26T17:08:22.569Z,95247.19
2017-11-26T17:10:50.921Z,95244.23
2017-11-26T17:13:19.580Z,95255.91
2017-11-26T17:15:47.933Z,95252.07
2017-11-26T17:18:16.281Z,95254.64
2017-11-26T17:20:44.634Z,95256.00
2017-11-26T17:23:12.984Z,95253.92
2017-11-26T17:25:42.608Z,95252.16
2017-11-26T17:28:10.969Z,95247.48
2017-11-26T17:30:39.459Z,95246.80
2017-11-26T17:33:07.815Z,95255.76
2017-11-26T17:35:36.180Z,95253.64
2017-11-26T17:38:04.559Z,95249.27
2017-11-26T17:40:32.931Z,95243.95
2017-11-26T17:43:01.324Z,95253.69
2017-11-26T17:45:29.759Z,95255.29
2017-11-26T17:47:58.967Z,95256.16
2017-11-26T17:50:30.289Z,95263.79
2017-11-26T17:52:58.689Z,95260.70
2017-11-26T17:55:27.072Z,95259.06
2017-11-26T17:57:55.472Z,95258.39
2017-11-26T18:00:23.832Z,95265.97
2017-11-26T18:02:52.189Z,95266.50
2017-11-26T18:05:20.602Z,95267.24
2017-11-26T18:07:48.966Z,95269.13
2017-11-26T18:10:18.974Z,95263.02
2017-11-26T18:12:47.332Z,95272.68
2017-11-26T18:15:15.690Z,95270.21
2017-11-26T18:17:45.821Z,95271.83
2017-11-26T18:20:14.170Z,95279.57
2017-11-26T18:22:42.528Z,95284.09
2017-11-26T18:25:11.008Z,95284.48
2017-11-26T18:27:39.389Z,95283.34
2017-11-26T18:30:07.794Z,95285.88
2017-11-26T18:32:36.310Z,95285.30
2017-11-26T18:35:04.675Z,95287.09
2017-11-26T18:37:33.020Z,95286.97
2017-11-26T18:40:01.403Z,95287.20
2017-11-26T18:42:29.804Z,95299.27
2017-11-26T18:44:58.172Z,95296.23
2017-11-26T18:47:26.550Z,95303.12
2017-11-26T18:49:54.899Z,95305.81
2017-11-26T18:52:23.243Z,95291.16
2017-11-26T18:54:51.637Z,95295.41
2017-11-26T18:57:22.056Z,95300.78
2017-11-26T18:59:50.399Z,95298.59
2017-11-26T19:02:18.755Z,95290.92
2017-11-26T19:04:47.104Z,95290.66
2017-11-26T19:07:15.496Z,95296.72
2017-11-26T19:09:43.856Z,95292.06
2017-11-26T19:12:12.222Z,95295.08
2017-11-26T19:14:41.241Z,95298.50
2017-11-26T19:17:09.590Z,95296.84
2017-11-26T19:19:37.946Z,95298.08
2017-11-26T19:22:06.313Z,95290.80
2017-11-26T19:24:34.671Z,95296.58
2017-11-26T19:27:03.092Z,95299.06
2017-11-26T19:29:31.472Z,95305.75
2017-11-26T19:31:59.825Z,95308.56
2017-11-26T19:34:28.176Z,95317.69
2017-11-26T19:36:56.579Z,95307.38
2017-11-26T19:39:24.928Z,95304.02
2017-11-26T19:41:53.358Z,95306.13
2017-11-26T19:44:21.767Z,95316.79
2017-11-26T19:46:50.128Z,95312.66
2017-11-26T19:49:18.516Z,95322.31
2017-11-26T19:51:46.926Z,95330.25
2017-11-26T19:54:15.367Z,95324.90
2017-11-26T19:56:43.708Z,95332.06
2017-11-26T19:59:12.093Z,95336.02
2017-11-26T20:01:40.493Z,95337.26
2017-11-26T20:04:08.846Z,95332.27
2017-11-26T20:06:37.235Z,95333.38
2017-11-26T20:09:05.592Z,95331.28
2017-11-26T20:11:33.976Z,95336.22
2017-11-26T20:14:02.348Z,95332.62
2017-11-26T20:16:30.689Z,95331.28
2017-11-26T20:18:59.084Z,95329.42
2017-11-26T20:21:27.434Z,95328.28
2017-11-26T20:23:55.797Z,95325.38
2017-11-26T20:26:24.237Z,95326.98
2017-11-26T20:28:53.702Z,95322.14
2017-11-26T20:31:22.521Z,95327.53
2017-11-26T20:33:53.660Z,95322.14
2017-11-26T20:36:22.018Z,95328.31
2017-11-26T20:38:51.182Z,95330.30
2017-11-26T20:41:19.680Z,95335.53
2017-11-26T20:43:48.155Z,95346.77
2017-11-26T20:46:16.605Z,95336.75
2017-11-26T20:48:44.949Z,95335.31
2017-11-26T20:51:13.354Z,95343.58
2017-11-26T20:53:41.720Z,95345.60
2017-11-26T20:56:10.071Z,95344.56
2017-11-26T20:58:40.764Z,95353.61
2017-11-26T21:01:09.117Z,95344.01
2017-11-26T21:03:37.464Z,95348.02
2017-11-26T21:06:05.820Z,95353.36
2017-11-26T21:08:34.397Z,95353.89
2017-11-26T21:11:02.792Z,95352.72
2017-11-26T21:13:31.153Z,95346.63
2017-11-26T21:15:59.504Z,95350.95
2017-11-26T21:18:27.858Z,95348.86
2017-11-26T21:20:56.248Z,95353.55
2017-11-26T21:23:24.604Z,95350.13
2017-11-26T21:25:52.959Z,95347.31
2017-11-26T21:28:21.313Z,95343.56
2017-11-26T21:30:49.735Z,95339.66
2017-11-26T21:33:18.225Z,95333.45
2017-11-26T21:35:46.575Z,95336.91
2017-11-26T21:38:14.929Z,95339.60
2017-11-26T21:40:43.275Z,95334.53
2017-11-26T21:43:11.633Z,95338.29
2017-11-26T21:45:40.104Z,95347.58
2017-11-26T21:48:08.458Z,95352.08
2017-11-26T21:50:36.811Z,95355.60
2017-11-26T21:53:05.164Z,95340.46
2017-11-26T21:55:33.521Z,95345.61
2017-11-26T21:58:02.004Z,95352.82
2017-11-26T22:00:30.411Z,95356.56
2017-11-26T22:02:58.717Z,95349.16
2017-11-26T22:05:27.064Z,95344.36
2017-11-26T22:07:55.416Z,95351.71
2017-11-26T22:10:23.795Z,95349.75
2017-11-26T22:12:52.150Z,95348.05
2017-11-26T22:15:20.508Z,95344.83
2017-11-26T22:17:48.952Z,95340.35
2017-11-26T22:20:17.527Z,95350.16
2017-11-26T22:22:46.058Z,95350.20
2017-11-26T22:25:14.619Z,95355.99
2017-11-26T22:27:43.103Z,95351.41
2017-11-26T22:30:11.584Z,95353.20
2017-11-26T22:32:39.992Z,95350.25
2017-11-26T22:35:08.372Z,95347.17
2017-11-26T22:37:36.996Z,95347.20
2017-11-26T22:40:05.341Z,95355.56
2017-11-26T22:42:33.703Z,95343.33
2017-11-26T22:45:02.049Z,95339.09
2017-11-26T22:47:30.404Z,95344.22
2017-11-26T22:49:58.756Z,95344.38
2017-11-26T22:52:27.108Z,95341.20
2017-11-26T22:54:55.462Z,95339.48
2017-11-26T22:57:23.811Z,95336.33
2017-11-26T22:59:52.166Z,95333.17
2017-11-26T23:02:21.431Z,95330.68
2017-11-26T23:04:49.784Z,95323.31
2017-11-26T23:07:18.133Z,95330.05
2017-11-26T23:09:46.483Z,95332.07
2017-11-26T23:12:14.839Z,95337.91
2017-11-26T23:14:43.187Z,95333.84
2017-11-26T23:17:11.564Z,95333.16
2017-11-26T23:19:39.908Z,95344.56
2017-11-26T23:22:08.256Z,95341.84
2017-11-26T23:24:36.600Z,95339.61
2017-11-26T23:27:04.969Z,95334.85
2017-11-26T23:29:33.323Z,95337.97
2017-11-26T23:32:01.692Z,95342.05
2017-11-26T23:34:30.040Z,95335.25
2017-11-26T23:36:58.388Z,95342.38
2017-11-26T23:39:26.748Z,95348.93
2017-11-26T23:41:55.125Z,95344.98
2017-11-26T23:44:23.472Z,95339.87
2017-11-26T23:46:51.828Z,95346.23
2017-11-26T23:49:20.205Z,95342.95
2017-11-26T23:51:48.556Z,95345.09
2017-11-26T23:54:16.981Z,95350.33
2017-11-26T23:56:45.331Z,95336.92
2017-11-26T23:59:14.264Z,95336.64
